createdAt,value
2017-09-18T00:00:59.355Z,87.38
2017-09-18T00:03:29.377Z,87.83
2017-09-18T00:05:58.853Z,87.49
2017-09-18T00:08:26.159Z,87.59
2017-09-18T00:10:52.385Z,87.45
2017-09-18T00:13:18.617Z,87.84
2017-09-18T00:15:45.058Z,87.93
2017-09-18T00:18:11.523Z,87.97
2017-09-18T00:20:38.103Z,88.07
2017-09-18T00:23:04.724Z,88.04
2017-09-18T00:25:32.132Z,88.82
2017-09-18T00:27:58.807Z,88.98
2017-09-18T00:30:25.756Z,89.23
2017-09-18T00:32:52.440Z,89.69
2017-09-18T00:35:19.080Z,89.83
2017-09-18T00:37:45.589Z,90.00
2017-09-18T00:40:11.850Z,90.68
2017-09-18T00:42:38.480Z,90.24
2017-09-18T00:45:04.810Z,90.35
2017-09-18T00:47:31.174Z,90.51
2017-09-18T00:49:57.453Z,90.31
2017-09-18T00:52:23.919Z,90.48
2017-09-18T00:54:50.317Z,90.87
2017-09-18T00:57:16.603Z,90.92
2017-09-18T00:59:43.868Z,90.63
2017-09-18T01:02:10.147Z,90.65
2017-09-18T01:04:36.422Z,91.41
2017-09-18T01:07:02.660Z,91.50
2017-09-18T01:09:29.088Z,90.86
2017-09-18T01:11:55.482Z,90.50
2017-09-18T01:14:21.835Z,90.80
2017-09-18T01:16:48.035Z,90.27
2017-09-18T01:19:14.354Z,90.54
2017-09-18T01:21:40.677Z,90.24
2017-09-18T01:24:06.918Z,90.04
2017-09-18T01:26:33.161Z,90.03
2017-09-18T01:28:59.489Z,90.42
2017-09-18T01:31:25.964Z,90.63
2017-09-18T01:33:53.981Z,90.86
2017-09-18T01:36:20.202Z,90.51
2017-09-18T01:38:46.475Z,90.54
2017-09-18T01:41:13.109Z,90.48
2017-09-18T01:43:39.306Z,90.42
2017-09-18T01:46:07.585Z,90.61
2017-09-18T01:48:33.885Z,91.09
2017-09-18T01:51:00.193Z,91.05
2017-09-18T01:53:26.393Z,90.51
2017-09-18T01:55:52.618Z,90.72
2017-09-18T01:58:23.122Z,91.08
2017-09-18T02:00:49.471Z,91.65
2017-09-18T02:03:16.660Z,91.87
2017-09-18T02:05:42.946Z,91.20
2017-09-18T02:08:09.352Z,91.96
2017-09-18T02:10:35.611Z,91.38
2017-09-18T02:13:01.924Z,91.58
2017-09-18T02:15:28.150Z,91.23
2017-09-18T02:17:54.402Z,91.72
2017-09-18T02:20:20.601Z,92.52
2017-09-18T02:22:46.889Z,91.99
2017-09-18T02:25:13.178Z,92.76
2017-09-18T02:27:39.417Z,91.75
2017-09-18T02:30:20.571Z,92.06
2017-09-18T02:32:47.541Z,92.21
2017-09-18T02:35:13.882Z,91.64
2017-09-18T02:37:40.114Z,92.28
2017-09-18T02:40:06.342Z,91.97
2017-09-18T02:42:32.596Z,91.91
2017-09-18T02:44:58.815Z,91.75
2017-09-18T02:47:25.059Z,91.78
2017-09-18T02:49:51.334Z,91.88
2017-09-18T02:52:17.622Z,91.24
2017-09-18T02:54:43.859Z,91.06
2017-09-18T02:57:10.085Z,90.69
2017-09-18T02:59:36.308Z,90.11
2017-09-18T03:02:03.284Z,89.95
2017-09-18T03:04:29.545Z,89.83
2017-09-18T03:06:58.816Z,89.93
2017-09-18T03:09:25.243Z,89.42
2017-09-18T03:11:51.554Z,89.39
2017-09-18T03:14:18.593Z,88.66
2017-09-18T03:16:44.907Z,88.82
2017-09-18T03:19:11.183Z,88.44
2017-09-18T03:21:38.177Z,88.27
2017-09-18T03:24:04.448Z,88.12
2017-09-18T03:26:30.739Z,87.87
2017-09-18T03:28:57.197Z,87.20
2017-09-18T03:31:23.426Z,86.99
2017-09-18T03:33:50.753Z,86.61
2017-09-18T03:36:17.059Z,86.90
2017-09-18T03:38:43.348Z,86.92
2017-09-18T03:41:09.609Z,86.51
2017-09-18T03:43:35.966Z,86.46
2017-09-18T03:46:02.285Z,86.94
2017-09-18T03:48:28.590Z,86.82
2017-09-18T03:50:54.914Z,86.60
2017-09-18T03:53:21.157Z,86.43
2017-09-18T03:55:47.434Z,87.04
2017-09-18T03:58:14.587Z,86.71
2017-09-18T04:00:40.817Z,87.24
2017-09-18T04:03:07.202Z,86.78
2017-09-18T04:05:33.453Z,86.39
2017-09-18T04:07:59.681Z,86.39
2017-09-18T04:10:25.953Z,86.30
2017-09-18T04:12:52.178Z,85.98
2017-09-18T04:15:18.478Z,85.91
2017-09-18T04:17:45.438Z,85.98
2017-09-18T04:20:11.710Z,86.76
2017-09-18T04:22:38.080Z,86.99
2017-09-18T04:25:05.149Z,86.96
2017-09-18T04:27:32.144Z,86.86
2017-09-18T04:29:58.382Z,87.28
2017-09-18T04:32:24.598Z,85.69
2017-09-18T04:34:50.849Z,86.24
2017-09-18T04:37:17.064Z,86.07
2017-09-18T04:39:43.377Z,86.01
2017-09-18T04:42:10.357Z,85.86
2017-09-18T04:44:36.586Z,85.89
2017-09-18T04:47:02.810Z,85.91
2017-09-18T04:49:32.850Z,86.17
2017-09-18T04:52:01.166Z,86.69
2017-09-18T04:54:28.165Z,86.99
2017-09-18T04:56:54.431Z,87.23
2017-09-18T04:59:20.663Z,87.06
2017-09-18T05:01:46.909Z,86.65
2017-09-18T05:04:13.273Z,86.33
2017-09-18T05:06:39.543Z,85.69
2017-09-18T05:09:05.830Z,85.61
2017-09-18T05:11:32.132Z,85.23
2017-09-18T05:13:58.502Z,85.19
2017-09-18T05:16:24.820Z,85.31
2017-09-18T05:18:51.002Z,85.47
2017-09-18T05:21:17.981Z,85.63
2017-09-18T05:23:44.266Z,85.96
2017-09-18T05:26:10.582Z,85.92
2017-09-18T05:28:36.831Z,86.00
2017-09-18T05:31:03.158Z,85.93
2017-09-18T05:33:29.469Z,85.98
2017-09-18T05:35:55.700Z,85.50
2017-09-18T05:38:21.930Z,84.68
2017-09-18T05:40:48.198Z,84.86
2017-09-18T05:43:14.532Z,84.67
2017-09-18T05:45:41.486Z,84.64
2017-09-18T05:48:07.705Z,84.31
2017-09-18T05:50:33.910Z,84.34
2017-09-18T05:53:00.153Z,83.94
2017-09-18T05:55:27.154Z,84.20
2017-09-18T05:57:53.450Z,83.68
2017-09-18T06:00:19.672Z,83.94
2017-09-18T06:02:45.934Z,84.07
2017-09-18T06:05:12.315Z,83.77
2017-09-18T06:07:38.610Z,83.78
2017-09-18T06:10:04.850Z,84.03
2017-09-18T06:12:31.164Z,83.68
2017-09-18T06:14:57.407Z,84.03
2017-09-18T06:17:23.641Z,83.96
2017-09-18T06:19:49.833Z,83.88
2017-09-18T06:22:16.864Z,84.14
2017-09-18T06:24:43.877Z,84.43
2017-09-18T06:27:10.096Z,84.54
2017-09-18T06:29:36.325Z,84.07
2017-09-18T06:32:02.773Z,84.26
2017-09-18T06:34:30.059Z,82.59
2017-09-18T06:36:58.296Z,82.62
2017-09-18T06:39:24.533Z,81.55
2017-09-18T06:41:50.810Z,80.81
2017-09-18T06:44:17.142Z,79.83
2017-09-18T06:46:43.338Z,79.90
2017-09-18T06:49:09.595Z,78.26
2017-09-18T06:51:35.842Z,77.58
2017-09-18T06:54:02.066Z,76.75
2017-09-18T06:56:28.330Z,77.33
2017-09-18T06:58:54.565Z,77.60
2017-09-18T07:01:20.859Z,76.29
2017-09-18T07:03:47.138Z,75.29
2017-09-18T07:06:13.450Z,74.11
2017-09-18T07:08:39.689Z,74.24
2017-09-18T07:11:05.898Z,74.30
2017-09-18T07:13:32.153Z,75.88
2017-09-18T07:15:58.406Z,75.38
2017-09-18T07:18:24.650Z,75.01
2017-09-18T07:20:50.969Z,73.36
2017-09-18T07:23:17.233Z,73.92
2017-09-18T07:25:44.261Z,71.67
2017-09-18T07:28:10.563Z,74.30
2017-09-18T07:30:36.884Z,71.86
2017-09-18T07:33:03.158Z,71.73
2017-09-18T07:35:33.853Z,73.12
2017-09-18T07:38:01.366Z,70.54
2017-09-18T07:40:27.575Z,70.14
2017-09-18T07:42:53.949Z,70.07
2017-09-18T07:45:20.270Z,71.35
2017-09-18T07:47:46.581Z,71.12
2017-09-18T07:50:12.842Z,70.96
2017-09-18T07:52:39.168Z,70.68
2017-09-18T07:55:05.381Z,71.79
2017-09-18T07:57:31.629Z,71.73
2017-09-18T07:59:57.870Z,72.46
2017-09-18T08:02:24.322Z,72.34
2017-09-18T08:04:50.633Z,73.75
2017-09-18T08:07:16.872Z,71.53
2017-09-18T08:09:43.082Z,70.60
2017-09-18T08:12:09.330Z,71.46
2017-09-18T08:14:35.693Z,70.82
2017-09-18T08:17:01.896Z,70.82
2017-09-18T08:19:28.126Z,70.31
2017-09-18T08:21:54.413Z,70.69
2017-09-18T08:24:20.735Z,70.62
2017-09-18T08:26:46.990Z,70.77
2017-09-18T08:29:13.298Z,69.98
2017-09-18T08:31:39.510Z,68.87
2017-09-18T08:34:05.986Z,66.73
2017-09-18T08:36:32.292Z,68.63
2017-09-18T08:38:58.558Z,70.10
2017-09-18T08:41:25.086Z,70.00
2017-09-18T08:43:51.317Z,70.49
2017-09-18T08:46:17.517Z,72.13
2017-09-18T08:48:44.505Z,73.13
2017-09-18T08:51:10.736Z,72.87
2017-09-18T08:53:37.090Z,73.24
2017-09-18T08:56:03.438Z,71.48
2017-09-18T08:58:29.873Z,70.29
2017-09-18T09:00:59.104Z,71.66
2017-09-18T09:03:26.158Z,70.70
2017-09-18T09:05:57.788Z,69.67
2017-09-18T09:08:24.396Z,69.70
2017-09-18T09:10:50.686Z,70.22
2017-09-18T09:13:17.697Z,70.18
2017-09-18T09:15:43.929Z,69.49
2017-09-18T09:18:10.993Z,69.45
2017-09-18T09:20:37.227Z,68.75
2017-09-18T09:23:03.589Z,67.43
2017-09-18T09:25:30.872Z,66.71
2017-09-18T09:27:59.946Z,67.94
2017-09-18T09:30:26.258Z,66.39
2017-09-18T09:32:55.590Z,67.22
2017-09-18T09:35:22.865Z,66.52
2017-09-18T09:37:49.829Z,65.80
2017-09-18T09:40:16.178Z,66.26
2017-09-18T09:42:42.812Z,65.80
2017-09-18T09:45:09.087Z,66.11
2017-09-18T09:47:35.308Z,66.46
2017-09-18T09:50:01.548Z,65.63
2017-09-18T09:52:27.844Z,65.78
2017-09-18T09:54:58.340Z,65.29
2017-09-18T09:57:25.450Z,65.77
2017-09-18T09:59:54.396Z,64.09
2017-09-18T10:02:20.701Z,63.71
2017-09-18T10:04:46.942Z,63.92
2017-09-18T10:07:14.176Z,63.51
2017-09-18T10:09:40.381Z,64.01
2017-09-18T10:12:07.397Z,62.49
2017-09-18T10:14:34.205Z,63.22
2017-09-18T10:17:01.460Z,61.33
2017-09-18T10:19:27.737Z,61.77
2017-09-18T10:21:57.363Z,63.20
2017-09-18T10:24:23.678Z,64.44
2017-09-18T10:26:49.994Z,64.50
2017-09-18T10:29:16.202Z,63.51
2017-09-18T10:31:44.215Z,63.58
2017-09-18T10:34:15.209Z,64.02
2017-09-18T10:36:41.698Z,64.61
2017-09-18T10:39:07.949Z,64.11
2017-09-18T10:41:35.420Z,65.10
2017-09-18T10:44:02.551Z,63.20
2017-09-18T10:46:30.672Z,55.74
2017-09-18T10:48:58.122Z,47.70
2017-09-18T10:51:25.739Z,41.44
2017-09-18T10:53:55.525Z,40.26
2017-09-18T10:56:22.280Z,36.62
2017-09-18T10:58:51.971Z,36.06
2017-09-18T11:01:19.731Z,34.62
2017-09-18T11:03:50.633Z,36.71
2017-09-18T11:06:18.229Z,43.51
2017-09-18T11:08:45.827Z,49.09
2017-09-18T11:11:16.636Z,54.45
2017-09-18T11:13:44.402Z,49.67
2017-09-18T11:16:14.623Z,44.27
2017-09-18T11:18:41.491Z,41.66
2017-09-18T11:21:08.753Z,40.51
2017-09-18T11:23:41.407Z,36.00
2017-09-18T11:26:08.455Z,35.46
2017-09-18T11:28:36.785Z,31.85
2017-09-18T11:31:03.789Z,33.93
2017-09-18T11:33:30.882Z,34.23
2017-09-18T11:35:58.834Z,37.29
2017-09-18T11:38:29.878Z,37.47
2017-09-18T11:40:57.218Z,40.18
2017-09-18T11:43:24.395Z,36.81
2017-09-18T11:45:50.685Z,36.40
2017-09-18T11:48:20.466Z,37.84
2017-09-18T11:50:50.902Z,41.02
2017-09-18T11:53:20.437Z,40.92
2017-09-18T11:55:51.169Z,41.42
2017-09-18T11:58:21.211Z,42.38
2017-09-18T12:00:48.215Z,42.04
2017-09-18T12:03:14.876Z,42.34
2017-09-18T12:05:47.703Z,43.95
2017-09-18T12:08:17.194Z,41.05
2017-09-18T12:10:47.318Z,38.64
2017-09-18T12:13:14.662Z,42.21
2017-09-18T12:15:40.929Z,44.50
2017-09-18T12:18:07.154Z,46.01
2017-09-18T12:20:33.362Z,45.84
2017-09-18T12:22:59.604Z,46.00
2017-09-18T12:25:25.848Z,46.46
2017-09-18T12:27:52.169Z,48.51
2017-09-18T12:30:18.456Z,48.10
2017-09-18T12:32:45.573Z,48.48
2017-09-18T12:35:11.900Z,44.61
2017-09-18T12:37:38.162Z,42.41
2017-09-18T12:40:04.419Z,39.71
2017-09-18T12:42:30.860Z,37.90
2017-09-18T12:44:57.177Z,34.08
2017-09-18T12:47:23.505Z,35.61
2017-09-18T12:49:49.737Z,36.82
2017-09-18T12:52:15.997Z,40.12
2017-09-18T12:54:42.290Z,43.23
2017-09-18T12:57:08.721Z,44.60
2017-09-18T12:59:34.988Z,42.32
2017-09-18T13:02:01.212Z,39.83
2017-09-18T13:04:27.441Z,38.44
2017-09-18T13:06:53.678Z,35.86
2017-09-18T13:09:19.929Z,34.21
2017-09-18T13:11:46.186Z,35.13
2017-09-18T13:14:12.456Z,36.70
2017-09-18T13:16:39.462Z,38.84
2017-09-18T13:19:05.780Z,38.81
2017-09-18T13:21:31.973Z,35.43
2017-09-18T13:23:58.269Z,34.00
2017-09-18T13:26:24.585Z,32.40
2017-09-18T13:28:50.821Z,34.58
2017-09-18T13:31:17.111Z,33.20
2017-09-18T13:33:44.113Z,33.47
2017-09-18T13:36:12.927Z,33.61
2017-09-18T13:38:39.209Z,34.66
2017-09-18T13:41:05.468Z,34.01
2017-09-18T13:43:31.688Z,33.42
2017-09-18T13:45:57.989Z,33.92
2017-09-18T13:48:24.249Z,34.53
2017-09-18T13:50:50.510Z,35.08
2017-09-18T13:53:16.737Z,35.63
2017-09-18T13:55:42.953Z,37.34
2017-09-18T13:58:09.189Z,38.46
2017-09-18T14:00:35.449Z,36.73
2017-09-18T14:03:01.693Z,36.27
2017-09-18T14:05:27.941Z,35.36
2017-09-18T14:07:54.253Z,35.59
2017-09-18T14:10:20.471Z,35.51
2017-09-18T14:12:46.747Z,36.09
2017-09-18T14:15:14.525Z,36.09
2017-09-18T14:17:41.773Z,35.35
2017-09-18T14:20:08.053Z,35.18
2017-09-18T14:22:34.301Z,36.11
2017-09-18T14:25:00.769Z,35.23
2017-09-18T14:27:27.002Z,33.45
2017-09-18T14:29:53.345Z,33.82
2017-09-18T14:32:24.344Z,34.00
2017-09-18T14:34:52.221Z,33.46
2017-09-18T14:37:18.513Z,34.40
2017-09-18T14:39:46.149Z,34.24
2017-09-18T14:42:12.625Z,34.06
2017-09-18T14:44:38.910Z,36.12
2017-09-18T14:47:06.584Z,38.76
2017-09-18T14:49:32.844Z,40.52
2017-09-18T14:51:59.057Z,42.84
2017-09-18T14:54:29.348Z,44.38
2017-09-18T14:56:55.588Z,44.49
2017-09-18T14:59:21.850Z,45.82
2017-09-18T15:01:49.069Z,46.09
2017-09-18T15:04:16.137Z,47.78
2017-09-18T15:06:42.429Z,45.39
2017-09-18T15:09:09.509Z,45.90
2017-09-18T15:11:36.612Z,44.84
2017-09-18T15:14:05.592Z,44.95
2017-09-18T15:16:31.951Z,43.42
2017-09-18T15:18:58.170Z,40.86
2017-09-18T15:21:24.401Z,41.11
2017-09-18T15:23:50.658Z,38.63
2017-09-18T15:26:17.010Z,37.27
2017-09-18T15:28:43.381Z,36.62
2017-09-18T15:31:09.617Z,36.68
2017-09-18T15:33:36.085Z,36.85
2017-09-18T15:36:02.313Z,38.32
2017-09-18T15:38:28.582Z,38.67
2017-09-18T15:40:54.801Z,41.89
2017-09-18T15:43:21.341Z,43.58
2017-09-18T15:45:47.737Z,44.15
2017-09-18T15:48:14.933Z,45.27
2017-09-18T15:50:41.185Z,47.54
2017-09-18T15:53:07.786Z,48.45
2017-09-18T15:55:34.021Z,49.42
2017-09-18T15:58:00.507Z,50.29
2017-09-18T16:00:26.933Z,50.03
2017-09-18T16:02:53.185Z,51.00
2017-09-18T16:05:19.909Z,52.38
2017-09-18T16:07:46.222Z,51.59
2017-09-18T16:10:12.481Z,50.61
2017-09-18T16:12:41.964Z,51.18
2017-09-18T16:15:10.162Z,52.22
2017-09-18T16:17:38.546Z,52.02
2017-09-18T16:20:09.999Z,54.04
2017-09-18T16:22:39.380Z,55.70
2017-09-18T16:25:08.751Z,55.89
2017-09-18T16:27:40.601Z,55.93
2017-09-18T16:30:10.487Z,52.80
2017-09-18T16:32:42.502Z,54.84
2017-09-18T16:35:13.344Z,56.21
2017-09-18T16:37:42.813Z,57.17
2017-09-18T16:40:12.120Z,57.58
2017-09-18T16:42:41.144Z,55.33
2017-09-18T16:45:10.307Z,60.07
2017-09-18T16:47:39.932Z,57.63
2017-09-18T16:50:08.937Z,59.17
2017-09-18T16:52:38.132Z,59.76
2017-09-18T16:55:09.210Z,59.26
2017-09-18T16:57:39.423Z,60.17
2017-09-18T17:00:09.065Z,61.71
2017-09-18T17:02:35.421Z,63.61
2017-09-18T17:05:01.899Z,62.96
2017-09-18T17:07:28.210Z,63.73
2017-09-18T17:09:54.469Z,62.72
2017-09-18T17:12:22.287Z,65.86
2017-09-18T17:14:51.201Z,65.60
2017-09-18T17:17:19.926Z,65.51
2017-09-18T17:19:48.376Z,69.39
2017-09-18T17:22:16.370Z,69.77
2017-09-18T17:24:46.493Z,68.67
2017-09-18T17:27:15.354Z,73.11
2017-09-18T17:29:43.052Z,71.88
2017-09-18T17:32:11.757Z,77.22
2017-09-18T17:34:55.184Z,77.81
2017-09-18T17:37:24.676Z,79.81
2017-09-18T17:39:53.602Z,80.84
2017-09-18T17:42:21.957Z,80.83
2017-09-18T17:44:49.214Z,81.17
2017-09-18T17:47:17.188Z,82.35
2017-09-18T17:49:47.695Z,83.47
2017-09-18T17:52:15.351Z,80.72
2017-09-18T17:54:44.895Z,79.19
2017-09-18T17:57:15.686Z,79.35
2017-09-18T17:59:42.930Z,81.61
2017-09-18T18:02:14.013Z,77.25
2017-09-18T18:04:41.922Z,81.77
2017-09-18T18:07:10.150Z,81.85
2017-09-18T18:09:37.655Z,82.78
2017-09-18T18:12:04.083Z,84.10
2017-09-18T18:14:30.307Z,85.00
2017-09-18T18:16:58.299Z,85.66
2017-09-18T18:19:26.847Z,84.42
2017-09-18T18:21:54.520Z,78.52
2017-09-18T18:24:22.223Z,77.29
2017-09-18T18:26:50.766Z,77.19
2017-09-18T18:29:18.479Z,81.05
2017-09-18T18:31:45.738Z,80.42
2017-09-18T18:34:15.597Z,85.25
2017-09-18T18:36:42.093Z,85.39
2017-09-18T18:39:11.427Z,84.54
2017-09-18T18:41:40.122Z,86.49
2017-09-18T18:44:09.028Z,85.77
2017-09-18T18:46:36.347Z,87.34
2017-09-18T18:49:04.436Z,88.50
2017-09-18T18:51:34.169Z,86.40
2017-09-18T18:54:04.801Z,81.95
2017-09-18T18:56:31.299Z,79.89
2017-09-18T18:58:57.598Z,81.17
2017-09-18T19:01:24.604Z,85.73
2017-09-18T19:03:51.134Z,81.55
2017-09-18T19:06:17.451Z,86.86
2017-09-18T19:08:43.722Z,83.11
2017-09-18T19:11:10.070Z,85.26
2017-09-18T19:13:36.501Z,86.56
2017-09-18T19:16:03.128Z,82.13
2017-09-18T19:18:29.426Z,80.18
2017-09-18T19:20:56.397Z,78.89
2017-09-18T19:23:25.027Z,79.16
2017-09-18T19:25:51.261Z,86.10
